Time;durP1;ratioP1;P1;durP2;ratioP2;P2;SDS_P1;SDS_P2;PMS_P1;PMS_P2;Temp;Humidity;BMP_temperature;BMP_pressure;BME280_temperature;BME280_humidity;BME280_pressure;Samples;Min_cycle;Max_cycle;Signal;HPM_P1;HPM_P2
2023/08/14 00:00:10;;;;;;;7.75;5.75;;;;;;;;;;5054468;28;20408;-77
2023/08/14 00:02:36;;;;;;;7.95;5.70;;;;;;;;;;5053561;28;20477;-77
2023/08/14 00:05:03;;;;;;;9.30;5.80;;;;;;;;;;5054311;28;20386;-76
2023/08/14 00:07:29;;;;;;;9.57;6.15;;;;;;;;;;5054053;28;20370;-78
2023/08/14 00:09:55;;;;;;;9.90;6.30;;;;;;;;;;5054366;28;20370;-78
2023/08/14 00:12:22;;;;;;;11.30;6.95;;;;;;;;;;5054772;28;20502;-78
2023/08/14 00:14:48;;;;;;;9.20;6.30;;;;;;;;;;5053097;28;20017;-80
2023/08/14 00:20:19;;;;;;;13.65;8.02;;;486.80;2380.80;;;;;;5054195;28;20074;-80
2023/08/14 00:22:45;;;;;;;13.30;8.00;;;486.40;2380.80;;;;;;5052923;28;20441;-79
2023/08/14 00:25:12;;;;;;;14.68;8.50;;;;;;;;;;5054197;28;20362;-80
2023/08/14 00:27:38;;;;;;;12.52;7.80;;;;;;;;;;5054331;28;20447;-79
2023/08/14 00:30:04;;;;;;;9.93;7.18;;;;;;;;;;5054273;28;20405;-79
2023/08/14 00:35:49;;;;;;;10.77;6.82;;;;;;;;;;5056367;28;20031;-80
2023/08/14 00:38:15;;;;;;;9.00;6.53;;;;;;;;;;5055829;28;20370;-81
2023/08/14 00:40:41;;;;;;;9.63;6.25;;;486.90;2380.80;;;;;;5055216;28;20394;-80
2023/08/14 00:43:08;;;;;;;10.45;6.20;;;;;;;;;;5054926;28;20374;-80
2023/08/14 00:45:35;;;;;;;9.18;6.50;;;487.00;2380.80;;;;;;5054169;28;20032;-80
2023/08/14 00:48:01;;;;;;;10.27;6.38;;;;;;;;;;5055684;28;20355;-79
2023/08/14 00:50:27;;;;;;;11.40;6.28;;;;;;;;;;5053942;28;20463;-79
2023/08/14 00:52:56;;;;;;;9.43;6.38;;;;;;;;;;5053711;28;20405;-79
2023/08/14 00:55:25;;;;;;;11.80;6.25;;;;;;;;;;5053710;28;20459;-79
2023/08/14 00:57:52;;;;;;;12.38;6.35;;;;;;;;;;5053789;28;20031;-79
2023/08/14 01:00:18;;;;;;;9.45;6.40;;;;;;;;;;5053371;28;20367;-79
2023/08/14 01:02:49;;;;;;;11.82;6.28;;;;;;;;;;5054870;28;20402;-78
2023/08/14 01:05:16;;;;;;;8.77;6.45;;;;;;;;;;5055269;28;20437;-79
2023/08/14 01:07:42;;;;;;;14.48;7.57;;;;;;;;;;5055184;28;20381;-81
2023/08/14 01:10:09;;;;;;;10.70;7.15;;;;;;;;;;5054463;28;20378;-78
2023/08/14 01:12:42;;;;;;;10.73;6.70;;;;;;;;;;5053359;28;20407;-77
2023/08/14 01:15:13;;;;;;;9.73;7.20;;;;;;;;;;5053382;28;20478;-78
2023/08/14 01:20:43;;;;;;;8.85;6.20;;;;;;;;;;5053288;28;20075;-77
2023/08/14 01:23:24;;;;;;;11.23;5.97;;;;;;;;;;5053154;28;20391;-78
2023/08/14 01:25:52;;;;;;;9.60;5.93;;;;;;;;;;5053857;28;20452;-79
2023/08/14 01:28:18;;;;;;;7.55;6.03;;;;;;;;;;5052684;28;20347;-77
2023/08/14 01:30:44;;;;;;;8.85;6.20;;;;;;;;;;5057213;28;20373;-77
2023/08/14 01:33:10;;;;;;;10.32;6.40;;;;;;;;;;5055827;28;20351;-77
2023/08/14 01:35:43;;;;;;;7.80;6.00;;;;;;;;;;5057240;28;20409;-78
2023/08/14 01:38:15;;;;;;;9.80;6.10;;;;;;;;;;5057184;28;20358;-78
2023/08/14 01:40:45;;;;;;;7.60;5.70;;;;;;;;;;5058842;28;20462;-79
2023/08/14 01:43:15;;;;;;;10.05;6.22;;;;;;;;;;5057500;28;20371;-79
2023/08/14 01:45:42;;;;;;;8.85;5.90;;;;;;;;;;5058673;28;20078;-79
2023/08/14 01:48:10;;;;;;;7.70;5.97;;;;;;;;;;5058141;28;20041;-79
2023/08/14 01:50:38;;;;;;;7.72;6.28;;;;;;;;;;5058383;28;20340;-80
2023/08/14 01:53:06;;;;;;;9.55;6.25;;;;;;;;;;5057113;28;20366;-80
2023/08/14 01:55:32;;;;;;;6.13;5.18;;;;;;;;;;5058437;28;20374;-81
2023/08/14 01:57:59;;;;;;;7.03;5.50;;;;;;;;;;5057860;28;20024;-81
2023/08/14 02:06:14;;;;;;;7.05;5.35;;;;;;;;;;5049435;28;20051;-77
2023/08/14 02:08:40;;;;;;;7.25;6.30;;;;;;;;;;5056575;28;20405;-78
2023/08/14 02:11:07;;;;;;;9.00;8.10;;;486.70;2380.80;;;;;;5055319;28;20348;-79
2023/08/14 02:13:34;;;;;;;10.13;7.80;;;486.40;2380.80;;;;;;5056592;28;20476;-79
2023/08/14 02:16:00;;;;;;;7.47;6.68;;;461.70;2380.80;;;;;;5059089;28;20378;-80
2023/08/14 02:18:26;;;;;;;11.85;6.80;;;461.70;2304.00;;;;;;5058438;28;20447;-79
2023/08/14 02:20:53;;;;;;;7.43;6.22;;;461.60;2073.60;;;;;;5057797;28;20035;-80
2023/08/14 02:23:19;;;;;;;8.48;7.25;;;461.50;2304.00;;;;;;5057136;28;20339;-79
2023/08/14 02:25:45;;;;;;;10.20;7.45;;;461.50;2380.80;;;;;;5058841;28;20394;-80
2023/08/14 02:28:12;;;;;;;8.20;6.78;;;461.60;2380.80;;;;;;5058286;28;20470;-81
2023/08/14 02:30:43;;;;;;;8.30;6.45;;;461.60;2380.80;;;;;;5058024;28;20021;-81
2023/08/14 02:33:10;;;;;;;9.27;6.25;;;461.50;2022.40;;;;;;5057753;28;20358;-79
2023/08/14 02:35:36;;;;;;;9.05;7.10;;;461.50;2227.20;;;;;;5055651;28;20409;-79
2023/08/14 02:38:05;;;;;;;9.38;7.18;;;461.40;2380.80;;;;;;5056214;28;20460;-79
2023/08/14 02:40:31;;;;;;;8.27;7.03;;;461.40;2380.80;;;;;;5053608;28;20429;-78
2023/08/14 02:43:02;;;;;;;8.77;6.80;;;461.30;2380.80;;;;;;5055176;28;20463;-79
2023/08/14 02:45:29;;;;;;;9.10;7.28;;;461.30;2380.80;;;;;;5055645;28;20366;-78
2023/08/14 02:51:17;;;;;;;7.68;6.88;;;461.40;2380.80;;;;;;5056028;28;20166;-79
2023/08/14 02:53:43;;;;;;;9.85;7.43;;;461.40;2380.80;;;;;;5056198;28;20354;-80
2023/08/14 02:56:09;;;;;;;9.73;6.63;;;461.40;2380.80;;;;;;5058760;28;20021;-81
2023/08/14 02:58:36;;;;;;;8.30;6.95;;;461.40;2380.80;;;;;;5057228;28;20384;-80
2023/08/14 03:01:04;;;;;;;9.70;6.97;;;461.40;2380.80;;;;;;5056204;28;20406;-78
2023/08/14 03:03:29;;;;;;;10.52;7.25;;;461.40;2380.80;;;;;;5055889;28;20009;-79
2023/08/14 03:05:58;;;;;;;8.63;7.20;;;461.40;2380.80;;;;;;5055554;28;20052;-80
2023/08/14 03:08:24;;;;;;;9.52;8.07;;;461.40;2380.80;;;;;;5054564;28;20449;-79
2023/08/14 03:10:50;;;;;;;9.88;7.80;;;461.30;2380.80;;;;;;5055496;28;20362;-80
2023/08/14 03:13:16;;;;;;;9.70;7.32;;;461.40;2380.80;;;;;;5053966;28;20021;-80
2023/08/14 03:22:26;;;;;;;12.90;7.95;;;461.30;2380.80;;;;;;4996164;28;20097;-81
2023/08/14 03:24:52;;;;;;;14.07;9.60;;;461.30;2380.80;;;;;;4994542;28;20026;-80
2023/08/14 03:27:18;;;;;;;10.65;8.73;;;461.30;2380.80;;;;;;4995451;28;20431;-81
2023/08/14 03:29:44;;;;;;;12.52;8.75;;;461.30;2380.80;;;;;;4993968;28;20349;-80
2023/08/14 03:32:10;;;;;;;11.35;9.00;;;461.20;2380.80;;;;;;4994074;28;20125;-80
2023/08/14 03:34:36;;;;;;;9.45;8.13;;;461.10;2380.80;;;;;;4993970;28;20495;-80
2023/08/14 03:37:03;;;;;;;10.38;7.90;;;461.10;2380.80;;;;;;4993965;28;20035;-80
2023/08/14 03:39:29;;;;;;;9.05;7.97;;;461.10;2380.80;;;;;;4993859;28;20376;-79
2023/08/14 03:41:55;;;;;;;12.05;7.85;;;461.20;2380.80;;;;;;4993663;28;20377;-80
2023/08/14 03:44:24;;;;;;;10.98;7.90;;;461.10;2380.80;;;;;;4993520;28;20471;-80
2023/08/14 03:46:50;;;;;;;9.45;7.63;;;461.00;2380.80;;;;;;4995354;28;20416;-80
2023/08/14 03:49:16;;;;;;;11.25;7.75;;;460.80;2380.80;;;;;;4995044;28;20026;-80
2023/08/14 03:51:42;;;;;;;10.88;7.75;;;436.10;2022.40;;;;;;4995198;28;20392;-82
2023/08/14 03:54:08;;;;;;;11.05;7.30;;;;;;;;;;4994006;28;20069;-78
2023/08/14 03:56:34;;;;;;;11.13;7.32;;;;;;;;;;5050494;28;20381;-77
2023/08/14 03:59:01;;;;;;;8.57;7.03;;;;;;;;;;5054576;28;20524;-79
2023/08/14 04:01:27;;;;;;;8.82;7.47;;;;;;;;;;5054054;28;20401;-78
2023/08/14 04:03:53;;;;;;;8.27;7.07;;;;;;;;;;5054127;28;20529;-78
2023/08/14 04:06:20;;;;;;;8.90;7.35;;;;;;;;;;5054026;28;20387;-78
2023/08/14 04:08:46;;;;;;;9.35;7.25;;;;;;;;;;5054548;28;20382;-77
2023/08/14 04:11:12;;;;;;;9.85;7.65;;;;;;;;;;5054357;28;20371;-81
2023/08/14 04:13:39;;;;;;;12.20;7.63;;;;;;;;;;5054258;28;20375;-80
2023/08/14 04:16:05;;;;;;;9.35;7.43;;;461.30;2380.80;;;;;;5054220;28;20413;-80
2023/08/14 04:18:31;;;;;;;9.77;7.45;;;461.10;2380.80;;;;;;5054054;28;20419;-78
2023/08/14 04:20:58;;;;;;;10.25;6.78;;;461.10;2380.80;;;;;;5053795;28;20374;-81
2023/08/14 04:23:25;;;;;;;11.32;8.00;;;461.10;2380.80;;;;;;5054276;28;20405;-81
2023/08/14 04:25:52;;;;;;;10.90;7.97;;;461.30;2380.80;;;;;;5054135;28;20370;-80
2023/08/14 04:28:19;;;;;;;9.60;7.50;;;461.30;2380.80;;;;;;5054152;28;20336;-80
2023/08/14 04:30:45;;;;;;;9.90;8.10;;;461.30;2380.80;;;;;;5054013;28;20355;-80
2023/08/14 04:37:00;;;;;;;10.55;7.50;;;461.50;2380.80;;;;;;5054009;28;20036;-81
2023/08/14 04:39:26;;;;;;;12.10;8.88;;;461.60;2380.80;;;;;;5052516;28;20407;-80
2023/08/14 04:41:52;;;;;;;11.25;8.00;;;461.70;2380.80;;;;;;5053458;28;20060;-79
2023/08/14 04:44:18;;;;;;;12.02;8.65;;;461.70;2380.80;;;;;;5052417;28;20414;-80
2023/08/14 04:46:44;;;;;;;14.88;10.02;;;486.40;2380.80;;;;;;5053847;28;20025;-79
2023/08/14 04:49:10;;;;;;;15.68;10.30;;;486.40;2380.80;;;;;;5053847;28;20362;-79
2023/08/14 04:51:36;;;;;;;16.30;10.40;;;486.40;2380.80;;;;;;5053924;28;20021;-80
2023/08/14 04:54:02;;;;;;;14.02;9.85;;;461.70;2380.80;;;;;;5053376;28;20025;-80
2023/08/14 04:56:30;;;;;;;14.25;9.18;;;486.40;2380.80;;;;;;5053030;28;20340;-79
2023/08/14 04:58:57;;;;;;;11.43;8.82;;;486.50;2380.80;;;;;;5053739;28;20463;-79
2023/08/14 05:01:23;;;;;;;17.40;9.85;;;486.60;2380.80;;;;;;5053807;28;20343;-80
2023/08/14 05:03:49;;;;;;;13.43;9.75;;;486.50;2380.80;;;;;;5055408;28;20020;-80
2023/08/14 05:06:15;;;;;;;14.00;10.00;;;486.90;2380.80;;;;;;5057556;28;20390;-80
2023/08/14 05:08:41;;;;;;;12.80;10.25;;;;;;;;;;5057817;28;20370;-79
2023/08/14 05:11:07;;;;;;;11.77;10.27;;;;;;;;;;5057883;28;20418;-79
2023/08/14 05:13:34;;;;;;;15.52;10.88;;;;;;;;;;5057699;28;20518;-79
2023/08/14 05:16:00;;;;;;;15.80;10.93;;;;;;;;;;5057697;28;20369;-79
2023/08/14 05:21:29;;;;;;;13.05;9.40;;;;;;;;;;5057691;28;20111;-79
2023/08/14 05:23:55;;;;;;;15.00;9.70;;;;;;;;;;5057504;28;20347;-79
2023/08/14 05:26:22;;;;;;;13.23;9.98;;;;;;;;;;5057861;28;20437;-78
2023/08/14 05:28:48;;;;;;;13.27;9.60;;;;;;;;;;5056017;28;20374;-79
2023/08/14 05:31:14;;;;;;;12.55;9.57;;;;;;;;;;5057165;28;20351;-78
2023/08/14 05:33:40;;;;;;;13.48;10.15;;;;;;;;;;5057116;28;20460;-79
2023/08/14 05:36:07;;;;;;;18.65;9.85;;;;;;;;;;5057019;28;20363;-79
2023/08/14 05:38:33;;;;;;;13.57;9.73;;;;;;;;;;5057063;28;20401;-77
2023/08/14 05:40:59;;;;;;;11.70;9.20;;;;;;;;;;5055553;28;20415;-79
2023/08/14 05:43:26;;;;;;;12.95;8.90;;;;;;;;;;5056932;28;20374;-78
2023/08/14 05:45:52;;;;;;;11.27;8.88;;;;;;;;;;5056756;28;20354;-76
2023/08/14 05:51:22;;;;;;;11.90;9.38;;;;;;;;;;5057056;28;20424;-79
2023/08/14 05:53:48;;;;;;;11.07;8.25;;;;;;;;;;5057000;28;20332;-78
2023/08/14 05:56:14;;;;;;;10.45;7.60;;;;;;;;;;5056817;28;20367;-78
2023/08/14 05:58:41;;;;;;;10.40;8.77;;;;;;;;;;5056789;28;20343;-79
2023/08/14 06:01:07;;;;;;;10.23;7.55;;;;;;;;;;5056703;28;20379;-79
2023/08/14 06:06:37;;;;;;;;;;;;;;;;;;5050403;28;20090;-76
2023/08/14 06:09:03;;;;;;;10.85;7.32;;;;;;;;;;5056666;28;19904;-79
2023/08/14 06:11:30;;;;;;;10.13;7.60;;;;;;;;;;5056285;28;20478;-78
2023/08/14 06:13:56;;;;;;;12.40;7.03;;;;;;;;;;5056378;28;20013;-78
2023/08/14 06:16:22;;;;;;;13.90;7.15;;;;;;;;;;5056249;28;20320;-77
2023/08/14 06:18:48;;;;;;;9.45;6.70;;;;;;;;;;5056589;28;20433;-78
2023/08/14 06:21:14;;;;;;;12.13;6.97;;;;;;;;;;5056170;28;20033;-79
2023/08/14 06:23:41;;;;;;;11.25;6.97;;;;;;;;;;5057495;28;20354;-77
2023/08/14 06:26:07;;;;;;;12.98;7.07;;;;;;;;;;5056356;28;20336;-77
2023/08/14 06:28:33;;;;;;;11.40;7.47;;;;;;;;;;5055948;28;20498;-77
2023/08/14 06:31:03;;;;;;;9.10;6.70;;;;;;;;;;5056296;28;20403;-77
2023/08/14 06:36:35;;;;;;;10.18;6.07;;;;;;;;;;5057586;28;20074;-78
2023/08/14 06:39:05;;;;;;;9.52;5.30;;;;;;;;;;5057882;28;20362;-78
2023/08/14 06:41:31;;;;;;;9.88;5.60;;;;;;;;;;5056444;28;20411;-78
2023/08/14 06:43:57;;;;;;;10.95;5.85;;;;;;;;;;5057620;28;20489;-79
2023/08/14 06:46:24;;;;;;;7.07;5.55;;;;;;;;;;5057847;28;20393;-77
2023/08/14 06:48:53;;;;;;;10.43;5.57;;;;;;;;;;5056407;28;20473;-77
2023/08/14 06:51:19;;;;;;;7.82;5.50;;;;;;;;;;5057686;28;20422;-81
2023/08/14 06:53:45;;;;;;;8.43;5.72;;;;;;;;;;5058006;28;20359;-78
2023/08/14 06:56:12;;;;;;;8.63;5.35;;;;;;;;;;5057536;28;20413;-78
2023/08/14 06:58:39;;;;;;;7.18;5.57;;;;;;;;;;5057484;28;20340;-78
2023/08/14 07:01:06;;;;;;;10.77;5.43;;;;;;;;;;5056554;28;20374;-78
2023/08/14 07:06:37;;;;;;;9.38;5.10;;;;;;;;;;5057135;28;20044;-78
2023/08/14 07:09:03;;;;;;;7.85;5.28;;;;;;;;;;5057547;28;20366;-77
2023/08/14 07:11:36;;;;;;;9.23;5.25;;;;;;;;;;5054531;28;20408;-76
2023/08/14 07:14:03;;;;;;;8.23;5.40;;;;;;;;;;5055522;28;20431;-76
2023/08/14 07:16:29;;;;;;;6.35;5.03;;;;;;;;;;5055614;28;20358;-80
2023/08/14 07:18:56;;;;;;;7.05;5.15;;;;;;;;;;5055526;28;20454;-79
2023/08/14 07:21:22;;;;;;;6.68;4.82;;;;;;;;;;5055095;28;20476;-78
2023/08/14 07:23:49;;;;;;;6.20;4.30;;;;;;;;;;5053790;28;20473;-77
2023/08/14 07:26:16;;;;;;;6.65;4.57;;;;;;;;;;5054934;28;20431;-79
2023/08/14 07:28:42;;;;;;;6.72;4.50;;;;;;;;;;5055643;28;20413;-77
2023/08/14 07:31:08;;;;;;;6.22;4.50;;;;;;;;;;5057082;28;20446;-77
2023/08/14 07:36:38;;;;;;;6.32;4.30;;;716.80;2380.80;;;;;;5056193;28;20477;-78
2023/08/14 07:39:04;;;;;;;5.88;3.65;;;;;;;;;;5056423;28;20398;-78
2023/08/14 07:41:30;;;;;;;6.57;4.00;;;;;;;;;;5056922;28;20447;-78
2023/08/14 07:43:57;;;;;;;8.50;4.40;;;;;;;;;;5056642;28;20422;-78
2023/08/14 07:46:23;;;;;;;6.63;4.57;;;;;;;;;;5055815;28;20362;-78
2023/08/14 07:52:06;;;;;;;12.07;4.82;;;742.40;2124.80;;;;;;5056657;28;20075;-78
2023/08/14 07:54:32;;;;;;;7.55;4.70;;;717.70;2099.20;;;;;;5055892;28;20411;-78
2023/08/14 07:56:58;;;;;;;9.73;4.90;;;717.70;2073.60;;;;;;5055064;28;20371;-79
2023/08/14 07:59:25;;;;;;;7.20;4.70;;;;;;;;;;5056879;28;20024;-77
2023/08/14 08:01:51;;;;;;;9.48;4.10;;;742.60;2048.00;;;;;;5055441;28;20419;-77
2023/08/14 08:04:17;;;;;;;7.70;4.88;;;742.70;2022.40;;;;;;5055929;28;20351;-78
2023/08/14 08:06:43;;;;;;;6.43;4.03;;;742.90;1945.60;;;;;;5055313;28;20049;-79
2023/08/14 08:09:12;;;;;;;5.40;3.85;;;742.70;1894.40;;;;;;5056251;28;20021;-78
2023/08/14 08:11:38;;;;;;;6.13;3.75;;;742.90;1843.20;;;;;;5056305;28;20047;-77
2023/08/14 08:14:06;;;;;;;4.63;3.60;;;743.00;1817.60;;;;;;5053854;28;20096;-78
2023/08/14 08:16:37;;;;;;;8.55;4.43;;;743.00;1817.60;;;;;;5055426;28;20409;-79
2023/08/14 08:22:38;;;;;;;6.75;4.45;;;742.90;1843.20;;;;;;5056089;28;20394;-76
2023/08/14 08:25:05;;;;;;;7.35;4.25;;;742.90;1843.20;;;;;;5055956;28;20421;-78
2023/08/14 08:27:30;;;;;;;7.57;3.70;;;768.00;1792.00;;;;;;5055552;28;20460;-79
2023/08/14 08:29:57;;;;;;;6.65;3.70;;;743.20;1664.00;;;;;;5056029;28;20040;-78
2023/08/14 08:32:23;;;;;;;7.38;3.88;;;743.10;1664.00;;;;;;5055652;28;20358;-77
2023/08/14 08:34:49;;;;;;;5.85;3.53;;;768.10;1664.00;;;;;;5054969;28;20451;-78
2023/08/14 08:37:19;;;;;;;9.00;3.35;;;768.70;1587.20;;;;;;5055151;28;20048;-78
2023/08/14 08:39:45;;;;;;;6.45;3.40;;;;;;;;;;5054804;28;20371;-78
2023/08/14 08:42:12;;;;;;;4.43;2.60;;;794.00;1587.20;;;;;;5055539;28;20381;-80
2023/08/14 08:44:46;;;;;;;5.47;2.70;;;793.80;1536.00;;;;;;5055234;28;20371;-78
2023/08/14 08:47:17;;;;;;;3.88;2.70;;;794.00;1510.40;;;;;;5055252;28;20398;-78
2023/08/14 08:49:44;;;;;;;3.88;2.50;;;793.60;1484.80;;;;;;5055172;28;20355;-78
2023/08/14 08:52:14;;;;;;;3.92;2.60;;;819.20;1408.00;;;;;;5055593;28;20373;-77
2023/08/14 08:54:41;;;;;;;5.55;2.70;;;794.40;1382.40;;;;;;5054545;28;20366;-77
2023/08/14 08:57:11;;;;;;;4.55;2.72;;;794.40;1408.00;;;;;;5054913;28;20478;-76
2023/08/14 08:59:39;;;;;;;6.80;2.72;;;819.50;1356.80;;;;;;5055053;28;20413;-76
2023/08/14 09:02:07;;;;;;;5.28;2.95;;;819.70;1382.40;;;;;;5055578;28;20343;-76
2023/08/14 09:04:33;;;;;;;4.85;2.83;;;819.60;1305.60;;;;;;5054608;28;20382;-78
2023/08/14 09:07:00;;;;;;;3.45;2.70;;;819.70;1331.20;;;;;;5054329;28;20124;-76
2023/08/14 09:09:26;;;;;;;3.67;2.88;;;820.10;1331.20;;;;;;5055432;28;20355;-76
2023/08/14 09:11:52;;;;;;;5.55;2.60;;;845.10;1356.80;;;;;;5054202;28;20351;-77
2023/08/14 09:14:21;;;;;;;3.35;2.40;;;845.30;1331.20;;;;;;5054835;28;20087;-79
2023/08/14 09:16:53;;;;;;;6.43;2.50;;;845.30;1305.60;;;;;;5055011;28;20017;-77
2023/08/14 09:19:19;;;;;;;7.03;2.83;;;845.60;1331.20;;;;;;5055373;28;20408;-78
2023/08/14 09:21:45;;;;;;;8.20;2.80;;;;;;;;;;5054465;28;20090;-77
2023/08/14 09:24:14;;;;;;;7.57;2.75;;;;;;;;;;5054855;28;20374;-78
2023/08/14 09:26:43;;;;;;;9.32;3.00;;;819.40;1331.20;;;;;;5055356;28;20462;-78
2023/08/14 09:29:09;;;;;;;7.50;2.80;;;819.30;1331.20;;;;;;5055205;28;20386;-78
2023/08/14 09:31:35;;;;;;;6.32;2.78;;;820.00;1305.60;;;;;;5053662;28;20373;-77
2023/08/14 09:37:24;;;;;;;4.55;2.60;;;845.30;1305.60;;;;;;5055458;28;20032;-77
2023/08/14 09:40:08;;;;;;;5.13;2.90;;;819.90;1305.60;;;;;;5054339;28;20363;-78
2023/08/14 09:42:34;;;;;;;5.55;2.92;;;844.90;1305.60;;;;;;5055104;28;20386;-78
2023/08/14 09:45:01;;;;;;;5.97;2.60;;;844.80;1305.60;;;;;;5055303;28;20373;-79
2023/08/14 09:47:28;;;;;;;5.00;2.70;;;820.10;1280.00;;;;;;5053413;28;20351;-76
2023/08/14 09:49:55;;;;;;;8.38;3.00;;;845.30;1331.20;;;;;;5055247;28;20409;-76
2023/08/14 09:52:21;;;;;;;5.60;2.63;;;845.10;1305.60;;;;;;5058559;28;20406;-78
2023/08/14 09:54:48;;;;;;;4.65;2.60;;;820.00;1280.00;;;;;;5058488;28;20340;-76
2023/08/14 09:57:14;;;;;;;4.90;2.63;;;820.00;1305.60;;;;;;5057886;28;20382;-76
2023/08/14 09:59:40;;;;;;;7.80;3.00;;;845.30;1280.00;;;;;;5058213;28;20447;-79
2023/08/14 10:02:15;;;;;;;5.13;2.65;;;844.80;1305.60;;;;;;5058749;28;20344;-78
2023/08/14 10:04:45;;;;;;;6.53;2.50;;;844.80;1305.60;;;;;;5059402;28;20328;-77
2023/08/14 10:07:15;;;;;;;4.13;2.75;;;845.60;1305.60;;;;;;5058170;28;20522;-78
2023/08/14 10:09:56;;;;;;;3.75;3.10;;;845.50;1305.60;;;;;;5058166;28;20028;-79
2023/08/14 10:12:28;;;;;;;3.80;2.80;;;845.10;1305.60;;;;;;5058151;28;20335;-78
2023/08/14 10:15:08;;;;;;;4.80;2.95;;;844.80;1305.60;;;;;;5057883;28;20350;-78
2023/08/14 10:17:55;;;;;;;4.18;3.00;;;819.90;1305.60;;;;;;5058382;28;20497;-78
2023/08/14 10:20:23;;;;;;;3.88;3.00;;;820.00;1305.60;;;;;;5059155;28;20343;-76
2023/08/14 10:22:54;;;;;;;6.03;2.85;;;845.60;1305.60;;;;;;5057595;28;20411;-76
2023/08/14 10:25:26;;;;;;;5.25;2.85;;;870.40;1305.60;;;;;;5056223;28;20371;-79
2023/08/14 10:27:53;;;;;;;4.47;3.47;;;845.70;1280.00;;;;;;5057142;28;20417;-78
2023/08/14 10:30:23;;;;;;;3.95;3.03;;;870.60;1331.20;;;;;;5057527;28;20422;-77
2023/08/14 10:32:50;;;;;;;4.72;3.13;;;;;;;;;;5057689;28;20024;-79
2023/08/14 10:35:16;;;;;;;5.50;3.40;;;;;;;;;;5058184;28;20381;-78
2023/08/14 10:37:44;;;;;;;5.28;3.35;;;;;;;;;;5057117;28;20414;-79
2023/08/14 10:40:18;;;;;;;4.57;3.15;;;;;;;;;;5057546;28;20013;-79
2023/08/14 10:42:45;;;;;;;4.38;2.92;;;;;;;;;;5057654;28;20413;-77
2023/08/14 10:45:12;;;;;;;4.80;3.00;;;;;;;;;;5057740;28;20343;-78
2023/08/14 10:47:38;;;;;;;5.20;3.22;;;;;;;;;;5057467;28;20412;-78
2023/08/14 10:50:21;;;;;;;4.03;3.30;;;;;;;;;;5057486;28;20347;-78
2023/08/14 10:52:52;;;;;;;3.63;2.80;;;;;;;;;;5057852;28;20359;-77
2023/08/14 10:55:34;;;;;;;3.67;3.00;;;896.00;1228.80;;;;;;5056676;28;20425;-76
2023/08/14 10:58:00;;;;;;;7.18;3.17;;;871.30;1254.40;;;;;;5056274;28;20021;-77
2023/08/14 11:00:26;;;;;;;4.28;3.30;;;896.40;1228.80;;;;;;5057051;28;20035;-77
2023/08/14 11:03:06;;;;;;;5.78;3.33;;;921.70;1254.40;;;;;;5056746;28;20363;-77
2023/08/14 11:05:39;;;;;;;4.75;3.20;;;896.20;1228.80;;;;;;5054459;28;20378;-78
2023/08/14 11:08:11;;;;;;;6.00;3.70;;;896.30;1203.20;;;;;;5056832;28;20378;-77
2023/08/14 11:10:38;;;;;;;6.13;3.65;;;870.80;1254.40;;;;;;5055336;28;20051;-78
2023/08/14 11:13:09;;;;;;;4.60;2.90;;;871.20;1280.00;;;;;;5055290;28;20378;-78
2023/08/14 11:15:36;;;;;;;3.85;3.20;;;896.80;1228.80;;;;;;5055187;28;20398;-77
2023/08/14 11:18:10;;;;;;;6.68;3.30;;;896.20;1228.80;;;;;;5055739;28;20381;-77
2023/08/14 11:20:37;;;;;;;7.30;3.50;;;896.30;1254.40;;;;;;5056012;28;20362;-76
2023/08/14 11:23:05;;;;;;;5.55;3.95;;;896.90;1203.20;;;;;;5056838;28;20405;-77
2023/08/14 11:25:32;;;;;;;5.25;3.50;;;921.60;1203.20;;;;;;5056406;28;20348;-75
2023/08/14 11:28:01;;;;;;;5.05;3.40;;;896.60;1203.20;;;;;;5056080;28;20369;-76
2023/08/14 11:30:32;;;;;;;5.43;3.40;;;896.10;1228.80;;;;;;5056473;28;20406;-77
2023/08/14 11:32:58;;;;;;;3.95;3.55;;;896.90;1228.80;;;;;;5055500;28;20344;-78
2023/08/14 11:35:31;;;;;;;6.28;3.75;;;896.00;1203.20;;;;;;5056414;28;20417;-77
2023/08/14 11:37:57;;;;;;;4.95;3.40;;;896.80;1228.80;;;;;;5055092;28;20363;-78
2023/08/14 11:40:25;;;;;;;4.35;3.40;;;921.90;1228.80;;;;;;5056461;28;20375;-77
2023/08/14 11:42:51;;;;;;;8.25;3.50;;;921.70;1203.20;;;;;;5054429;28;20112;-75
2023/08/14 11:45:17;;;;;;;6.35;3.50;;;896.90;1203.20;;;;;;5055779;28;20354;-77
2023/08/14 11:47:47;;;;;;;4.93;3.40;;;896.50;1203.20;;;;;;5056059;28;20171;-76
2023/08/14 11:50:20;;;;;;;4.30;3.40;;;921.60;1203.20;;;;;;5056353;28;20401;-79
2023/08/14 11:52:48;;;;;;;6.00;3.53;;;922.10;1177.60;;;;;;5055713;28;20348;-79
2023/08/14 11:55:14;;;;;;;5.15;2.95;;;947.30;1177.60;;;;;;5055163;28;20366;-75
2023/08/14 11:57:44;;;;;;;5.95;3.58;;;947.40;1126.40;;;;;;5055538;28;20475;-78
2023/08/14 12:00:13;;;;;;;4.72;3.25;;;947.60;1152.00;;;;;;5056102;28;20402;-76
2023/08/14 12:02:39;;;;;;;6.60;3.20;;;947.60;1152.00;;;;;;5056022;28;20426;-77
2023/08/14 12:08:29;;;;;;;7.18;3.90;;;947.70;1126.40;;;;;;5045474;28;20493;-78
2023/08/14 12:10:56;;;;;;;4.00;3.20;;;922.30;1152.00;;;;;;5053263;28;20037;-75
2023/08/14 12:13:23;;;;;;;6.03;3.30;;;922.50;1177.60;;;;;;5054491;28;20450;-77
2023/08/14 12:15:49;;;;;;;4.00;3.40;;;947.20;1152.00;;;;;;5055959;28;20393;-78
2023/08/14 12:18:22;;;;;;;8.52;3.20;;;947.70;1100.80;;;;;;5055254;28;20352;-78
2023/08/14 12:20:54;;;;;;;5.63;3.30;;;922.50;1126.40;;;;;;5053554;28;20485;-78
2023/08/14 12:23:23;;;;;;;5.18;3.20;;;947.60;1100.80;;;;;;5054884;28;20654;-77
2023/08/14 12:25:54;;;;;;;5.00;3.28;;;948.00;1100.80;;;;;;5054203;28;20343;-77
2023/08/14 12:28:21;;;;;;;3.90;3.50;;;947.90;1100.80;;;;;;5053082;28;20409;-78
2023/08/14 12:30:49;;;;;;;6.13;3.60;;;922.20;1100.80;;;;;;5054512;28;20428;-79
2023/08/14 12:33:15;;;;;;;5.13;3.50;;;921.70;1100.80;;;;;;5055737;28;20374;-78
2023/08/14 12:35:42;;;;;;;4.13;3.20;;;896.10;1075.20;;;;;;5055429;28;20463;-76
2023/08/14 12:38:08;;;;;;;5.70;3.40;;;896.40;1100.80;;;;;;5054499;28;20434;-77
2023/08/14 12:40:38;;;;;;;5.57;3.30;;;871.20;1126.40;;;;;;5053717;28;20403;-76
2023/08/14 12:43:05;;;;;;;5.55;3.42;;;896.80;1152.00;;;;;;5055321;28;20377;-77
2023/08/14 12:45:31;;;;;;;6.45;3.17;;;921.90;1152.00;;;;;;5054703;28;20516;-77
2023/08/14 12:47:57;;;;;;;4.07;3.20;;;922.00;1152.00;;;;;;5055070;28;20483;-76
2023/08/14 12:50:23;;;;;;;6.75;3.60;;;947.20;1126.40;;;;;;5055358;28;20071;-77
2023/08/14 12:52:49;;;;;;;5.05;3.30;;;947.70;1100.80;;;;;;5055409;28;20029;-77
2023/08/14 12:55:15;;;;;;;6.30;3.50;;;948.00;1075.20;;;;;;5054857;28;20024;-75
2023/08/14 12:57:42;;;;;;;6.47;3.42;;;947.80;1075.20;;;;;;5054583;28;20418;-79
2023/08/14 13:00:08;;;;;;;6.13;3.33;;;947.30;1100.80;;;;;;5054683;28;20398;-79
2023/08/14 13:02:34;;;;;;;4.45;3.60;;;947.60;1075.20;;;;;;5053945;28;20446;-78
2023/08/14 13:08:22;;;;;;;5.18;3.25;;;922.30;1075.20;;;;;;5054726;28;20040;-78
2023/08/14 13:10:49;;;;;;;4.47;3.25;;;947.40;1100.80;;;;;;5055263;28;20370;-77
2023/08/14 13:13:15;;;;;;;5.40;3.40;;;947.60;1100.80;;;;;;5054883;28;20408;-76
2023/08/14 13:15:41;;;;;;;6.75;3.20;;;948.00;1075.20;;;;;;5055572;28;20459;-78
2023/08/14 13:18:07;;;;;;;5.55;3.33;;;973.00;1100.80;;;;;;5054771;28;20029;-75
2023/08/14 13:20:34;;;;;;;6.00;3.20;;;973.10;1075.20;;;;;;5053310;28;20075;-77
2023/08/14 13:23:00;;;;;;;6.70;3.30;;;973.10;1049.60;;;;;;5053927;28;20414;-75
2023/08/14 13:25:26;;;;;;;8.07;3.42;;;973.10;1075.20;;;;;;5057385;28;20355;-77
2023/08/14 13:27:52;;;;;;;4.95;3.47;;;972.90;1075.20;;;;;;5057876;28;20398;-78
2023/08/14 13:30:18;;;;;;;4.65;3.40;;;948.10;1049.60;;;;;;5059251;28;20362;-80
2023/08/14 13:32:44;;;;;;;4.65;3.00;;;972.80;1075.20;;;;;;5059003;28;20344;-78
2023/08/14 13:38:33;;;;;;;6.55;3.10;;;948.00;1049.60;;;;;;5058366;28;20035;-79
2023/08/14 13:41:02;;;;;;;4.28;3.45;;;947.90;1075.20;;;;;;5055921;28;20423;-77
2023/08/14 13:43:29;;;;;;;6.50;3.10;;;947.70;1075.20;;;;;;5058596;28;20517;-79
2023/08/14 13:45:57;;;;;;;5.35;3.70;;;922.40;1126.40;;;;;;5058159;28;20044;-78
2023/08/14 13:48:24;;;;;;;4.50;3.40;;;921.60;1126.40;;;;;;5057230;28;20459;-77
2023/08/14 13:50:52;;;;;;;5.43;3.60;;;896.40;1126.40;;;;;;5058142;28;20469;-77
2023/08/14 13:53:18;;;;;;;4.63;3.53;;;896.40;1126.40;;;;;;5057467;28;20043;-77
2023/08/14 13:55:45;;;;;;;5.18;3.47;;;896.40;1126.40;;;;;;5056190;28;20041;-79
2023/08/14 13:58:12;;;;;;;4.70;3.25;;;921.90;1126.40;;;;;;5057770;28;20459;-76
2023/08/14 14:00:38;;;;;;;5.50;3.28;;;922.10;1126.40;;;;;;5057344;28;20037;-77
2023/08/14 14:03:04;;;;;;;4.82;3.40;;;922.40;1075.20;;;;;;5058149;28;20434;-77
2023/08/14 14:08:52;;;;;;;4.68;3.30;;;922.20;1100.80;;;;;;5053302;28;20156;-77
2023/08/14 14:11:18;;;;;;;4.25;3.70;;;922.40;1075.20;;;;;;5058137;28;20029;-78
2023/08/14 14:13:45;;;;;;;5.57;3.47;;;947.20;1049.60;;;;;;5057534;28;20365;-79
2023/08/14 14:16:11;;;;;;;4.85;3.25;;;947.40;1049.60;;;;;;5057280;28;20426;-78